Malone, NY (12953)

10:58 AM EDT on September 04, 2015 (GMT -0400)
NCCC Campus | | Change Station
CLOSE
Current Station
Personal Weather Station
Location: Malone, NY
Elevation: 686 ft
Nearby Weather Stations

Elev 686 ft 44.85 °N, 74.28 °W | Updated 4 seconds ago

Clear
Clear
69.9 °F
Feels Like 69.9 °F
N
4.7
Wind Variable Wind from WNW
Gusts 7.0 mph

Today
High -- | Low -- °F
--% Chance of Precip.
Yesterday
High -- | Low -- °F
Precip. -- in
6:22 AM 7:28 PM
Waning Gibbous, 59% visible
Pressure 30.19 in
Visibility 10.0 miles
Clouds Clear
Dew Point 57 °F
Humidity 65%
Rainfall 0.00 in
Snow Depth Not available.
UV 6 out of 12
Pollen 7.70 out of 12
Air Quality Not available.
Flu Activity Not available.
METAR KMSS 041453Z AUTO 04011G18KT 10SM CLR 21/14 A3019 RMK AO2 SLP223 T02110139 51008
Pressure 30.19 in
Visibility 10.0 miles
Clouds Clear
Dew Point 57 °F
Humidity 65%
Rainfall 0.00 in
Snow Depth Not available.
UV 6 out of 12
Pollen 7.70 out of 12
Air Quality Not available.
Flu Activity Not available.
METAR KMSS 041453Z AUTO 04011G18KT 10SM CLR 21/14 A3019 RMK AO2 SLP223 T02110139 51008

10-Day Weather Forecast

×

Almanac

Astronomy

Sep. 04, 2015 Rise Set
Actual Time
Civil Twilight
Nautical Twilight
Astronomical Twilight
Moon
Length of Visible Light
Length of Day
Tomorrow will be .
, % of the Moon is Illuminated

Today's Extremes

State Highs State Lows

Community

WunderPhotos

Upload Photos

1,852,187 photos uploaded!

WunderBlogs® & News

Nearby

Air Quality

  Air Quality AQ Index Pollutant
Not available.

Snow Depth

Station Depth Elevation

Earthquake Activity

City Distance Mag. Time & Date
Minimum magnitude displayed is 2.5.

Coastal Water Temperatures

Place Temperature

Stations

Nearby Weather Stations

Station Location Temp. Windchill Dew Point Humidity Wind Precip. Elev Updated Type